Stormwatcher's Retreat Logo




                  Temp     Hi    Low   Out    Dew  Wind  Wind   Wind    Hi    Hi   Wind   Heat    THW   THSW                Rain  Solar   Solar Hi Solar   UV    UV    Hi     Heat    Cool    In     In    In     In     In   In Air          Wind  Wind    ISS   Arc.
  Date    Time     Out   Temp   Temp   Hum    Pt. Speed   Dir    Run Speed   Dir  Chill  Index  Index  Index   Bar    Rain  Rate   Rad.  Energy    Rad.  Index  Dose   UV     D-D     D-D    Temp   Hum    Dew   Heat    EMC Density     ET   Samp   Tx   Recept  Int.
------------------------------------------------------------------------------------------------------------------------------------------------------------------------------------------------------------------------------------------------------------------------
12/11/18 12:10a   50.5   50.5   50.0    75   42.9   5.0   SSW   0.83  13.0     S   48.8   50.3   48.6   45.7  30.225  0.00  0.00     0     0.00      0     0.0  0.00   0.0   0.101   0.000   68.8    48   48.3   67.2   8.87  .0750    0.000   210    5    100.0   10 
12/11/18 12:20a   50.0   50.5   50.0    76   42.7   5.0     S   0.83  10.0     S   48.2   49.8   48.0   45.1  30.220  0.01  0.00     0     0.00      0     0.0  0.00   0.0   0.104   0.000   68.8    48   48.3   67.2   8.87  .0750    0.000   211    5    100.0   10 
12/11/18 12:30a   49.5   50.0   49.5    76   42.2   4.0     S   0.67   9.0   SSE   48.3   49.3   48.1   45.2  30.217  0.00  0.00     0     0.00      0     0.0  0.00   0.0   0.108   0.000   68.7    48   48.2   67.1   8.88  .0750    0.000   212    5    100.0   10 
12/11/18 12:40a   50.0   50.0   49.5    77   43.1   5.0     S   0.83  17.0   SSW   48.2   49.9   48.1   45.2  30.219  0.00  0.00     0     0.00      0     0.0  0.00   0.0   0.104   0.000   68.6    48   48.1   67.0   8.88  .0750    0.000   213    5    100.0   10 
12/11/18 12:50a   50.2   50.3   50.0    76   42.9   6.0     S   1.00  17.0   SSW   47.9   50.0   47.7   44.8  30.221  0.00  0.00     0     0.00      0     0.0  0.00   0.0   0.103   0.000   68.6    48   48.1   67.0   8.88  .0750    0.000   211    5    100.0   10 
12/11/18  1:00a   50.0   50.3   49.8    77   43.1   5.0     S   0.83  15.0   SSE   48.2   49.9   48.1   45.2  30.217  0.01  0.00     0     0.00      0     0.0  0.00   0.0   0.104   0.000   68.5    48   48.0   66.9   8.88  .0750    0.001   212    5    100.0   10 
12/11/18  1:10a   49.8   50.1   49.8    77   42.9   6.0     S   1.00  12.0     S   47.5   49.7   47.4   44.5  30.210  0.00  0.00     0     0.00      0     0.0  0.00   0.0   0.106   0.000   68.4    48   47.9   66.9   8.88  .0750    0.000   213    5    100.0   10 
12/11/18  1:20a   49.9   49.9   49.8    77   43.0   7.0     S   1.17  12.0   SSW   47.1   49.8   47.0   44.1  30.206  0.00  0.00     0     0.00      0     0.0  0.00   0.0   0.105   0.000   68.4    48   47.9   66.9   8.88  .0750    0.000   212    5    100.0   10 
12/11/18  1:30a   50.1   50.1   49.8    77   43.2   7.0   SSW   1.17  14.0     S   47.3   50.0   47.2   44.3  30.206  0.00  0.00     0     0.00      0     0.0  0.00   0.0   0.103   0.000   68.3    48   47.8   66.8   8.88  .0750    0.000   213    5    100.0   10 
12/11/18  1:40a   50.3   50.3   50.1    76   43.0   8.0   SSW   1.33  14.0   SSE   46.9   50.1   46.7   44.0  30.202  0.01  0.00     0     0.00      0     0.0  0.00   0.0   0.102   0.000   68.3    48   47.8   66.8   8.88  .0750    0.000   213    5    100.0   10 
12/11/18  1:50a   50.1   50.3   50.1    76   42.8   7.0   SSW   1.17  18.0   SSE   47.3   49.9   47.1   44.2  30.200  0.00  0.00     0     0.00      0     0.0  0.00   0.0   0.103   0.000   68.3    48   47.8   66.8   8.88  .0750    0.000   212    5    100.0   10 
12/11/18  2:00a   50.1   50.1   50.0    75   42.5   6.0     S   1.00  13.0   SSW   47.8   49.9   47.6   44.7  30.189  0.00  0.00     0     0.00      0     0.0  0.00   0.0   0.103   0.000   68.2    48   47.8   66.7   8.89  .0750    0.001   210    5    100.0   10 
12/11/18  2:10a   50.1   50.1   50.0    74   42.1   9.0     S   1.50  20.0     S   46.0   49.8   45.7   43.1  30.183  0.00  0.00     0     0.00      0     0.0  0.00   0.0   0.103   0.000   68.1    48   47.7   66.6   8.89  .0750    0.000   212    5    100.0   10 
12/11/18  2:20a   50.1   50.2   50.1    74   42.1   8.0     S   1.33  18.0     S   46.6   49.8   46.3   43.5  30.181  0.00  0.00     0     0.00      0     0.0  0.00   0.0   0.103   0.000   68.1    47   47.1   66.5   8.79  .0750    0.000   213    5    100.0   10 
12/11/18  2:30a   50.3   50.3   50.0    73   42.0   9.0     S   1.50  17.0     S   46.3   50.0   46.0   43.3  30.183  0.00  0.00     0     0.00      0     0.0  0.00   0.0   0.102   0.000   68.1    48   47.7   66.6   8.89  .0750    0.000   213    5    100.0   10 
12/11/18  2:40a   50.4   50.4   50.2    72   41.7   7.0     S   1.17  15.0     S   47.7   50.0   47.3   44.3  30.181  0.00  0.00     0     0.00      0     0.0  0.00   0.0   0.101   0.000   68.1    47   47.1   66.5   8.79  .0750    0.000   211    5    100.0   10 
12/11/18  2:50a   50.3   50.4   50.2    73   42.0   8.0   SSW   1.33  19.0     S   46.9   50.0   46.6   43.8  30.178  0.00  0.00     0     0.00      0     0.0  0.00   0.0   0.102   0.000   68.1    47   47.1   66.5   8.79  .0750    0.000   212    5    100.0   10 
12/11/18  3:00a   50.4   50.4   50.2    73   42.1   8.0   SSW   1.33  18.0   SSE   47.0   50.1   46.7   43.9  30.177  0.00  0.00     0     0.00      0     0.0  0.00   0.0   0.101   0.000   68.1    47   47.1   66.5   8.79  .0750    0.002   209    5    100.0   10 
12/11/18  3:10a   50.0   50.4   50.0    74   42.0   9.0     S   1.50  23.0     S   45.9   49.8   45.7   43.1  30.176  0.00  0.00     0     0.00      0     0.0  0.00   0.0   0.104   0.000   68.0    47   47.0   66.4   8.79  .0750    0.000   213    5    100.0   10 
12/11/18  3:20a   49.6   50.0   49.6    77   42.7   9.0     S   1.50  15.0   SSE   45.4   49.4   45.2   42.6  30.170  0.00  0.00     0     0.00      0     0.0  0.00   0.0   0.107   0.000   68.0    47   47.0   66.4   8.79  .0750    0.000   212    5    100.0   10 
12/11/18  3:30a   49.5   49.6   49.5    78   42.9  10.0     S   1.67  18.0     S   44.7   49.4   44.6   42.0  30.172  0.00  0.00     0     0.00      0     0.0  0.00   0.0   0.108   0.000   67.9    47   46.9   66.3   8.79  .0750    0.000   212    5    100.0   10 
12/11/18  3:40a   49.4   49.5   49.4    80   43.5   9.0   SSW   1.50  24.0   SSE   45.2   49.3   45.1   42.5  30.170  0.00  0.00     0     0.00      0     0.0  0.00   0.0   0.108   0.000   67.9    47   46.9   66.3   8.79  .0750    0.000   212    5    100.0   10 
12/11/18  3:50a   49.4   49.4   49.2    80   43.5  10.0     S   1.67  24.0   SSE   44.6   49.3   44.5   41.9  30.163  0.01  0.00     0     0.00      0     0.0  0.00   0.0   0.108   0.000   67.8    47   46.8   66.2   8.79  .0750    0.000   212    5    100.0   10 
12/11/18  4:00a   49.5   49.5   49.4    80   43.6  11.0     S   1.83  20.0    SE   44.2   49.5   44.2   41.7  30.156  0.00  0.00     0     0.00      0     0.0  0.00   0.0   0.108   0.000   67.8    47   46.8   66.2   8.79  .0750    0.002   213    5    100.0   10 
12/11/18  4:10a   49.9   49.9   49.5    80   44.0  12.0   SSW   2.00  23.0    SW   44.2   49.9   44.2   41.8  30.154  0.00  0.00     0     0.00      0     0.0  0.00   0.0   0.105   0.000   67.8    47   46.8   66.2   8.79  .0750    0.000   210    5    100.0   10 
12/11/18  4:20a   49.8   49.9   49.8    80   43.9  11.0   SSW   1.83  23.0     S   44.6   49.8   44.6   42.1  30.148  0.00  0.00     0     0.00      0     0.0  0.00   0.0   0.106   0.000   67.8    47   46.8   66.2   8.79  .0750    0.000   212    5    100.0   10 
12/11/18  4:30a   49.7   49.8   49.7    80   43.8  12.0   SSW   2.00  24.0     S   44.0   49.7   44.0   41.6  30.146  0.00  0.00     0     0.00      0     0.0  0.00   0.0   0.106   0.000   67.8    47   46.8   66.2   8.79  .0750    0.000   213    5    100.0   10 
12/11/18  4:40a   49.6   49.7   49.5    80   43.7  12.0     S   2.00  26.0     S   43.9   49.6   43.9   41.5  30.142  0.00  0.00     0     0.00      0     0.0  0.00   0.0   0.107   0.000   67.8    47   46.8   66.2   8.79  .0750    0.000   212    5    100.0   10 
12/11/18  4:50a   49.4   49.6   49.4    81   43.8  13.0   SSW   2.17  26.0     S   43.2   49.4   43.2   40.9  30.134  0.00  0.00     0     0.00      0     0.0  0.00   0.0   0.108   0.000   67.7    47   46.7   66.1   8.80  .0750    0.000   214    5    100.0   10 
12/11/18  5:00a   49.3   49.4   49.3    81   43.7  13.0     S   2.17  26.0   SSW   43.1   49.3   43.1   40.8  30.130  0.00  0.00     0     0.00      0     0.0  0.00   0.0   0.109   0.000   67.7    47   46.7   66.1   8.80  .0750    0.002   212    5    100.0   10 
12/11/18  5:10a   49.4   49.4   49.3    81   43.8  12.0   SSW   2.00  23.0   SSE   43.6   49.4   43.6   41.2  30.124  0.00  0.00     0     0.00      0     0.0  0.00   0.0   0.108   0.000   67.7    47   46.7   66.1   8.80  .0750    0.000   212    5    100.0   10 
12/11/18  5:20a   49.6   49.6   49.3    81   44.0  12.0     S   2.00  22.0   SSW   43.9   49.6   43.9   41.6  30.116  0.00  0.00     0     0.00      0     0.0  0.00   0.0   0.107   0.000   67.6    47   46.6   66.0   8.80  .0750    0.000   213    5    100.0   10 
12/11/18  5:30a   50.3   50.3   49.6    80   44.4  14.0   SSW   2.33  34.0     S   43.9   50.3   43.9   41.7  30.113  0.00  0.00     0     0.00      0     0.0  0.00   0.0   0.102   0.000   67.6    47   46.6   66.0   8.80  .0749    0.000   212    5    100.0   10 
12/11/18  5:40a   50.7   50.7   50.3    79   44.4  14.0     S   2.33  33.0   SSE   44.3   50.6   44.2   42.0  30.114  0.00  0.00     0     0.00      0     0.0  0.00   0.0   0.099   0.000   67.5    47   46.6   65.8   8.80  .0750    0.000   214    5    100.0   10 
12/11/18  5:50a   50.7   50.8   50.7    79   44.4  13.0     S   2.17  27.0   SSE   44.7   50.6   44.6   42.4  30.111  0.00  0.00     0     0.00      0     0.0  0.00   0.0   0.099   0.000   67.5    47   46.6   65.8   8.80  .0750    0.000   213    5    100.0   10 
12/11/18  6:00a   50.7   50.8   50.6    79   44.4  12.0     S   2.00  28.0     S   45.1   50.6   45.0   42.7  30.103  0.00  0.00     0     0.00      0     0.0  0.00   0.0   0.099   0.000   67.5    47   46.6   65.8   8.80  .0749    0.002   213    5    100.0   10 
12/11/18  6:10a   50.5   50.8   50.5    79   44.2  14.0   SSW   2.33  30.0   SSE   44.1   50.4   44.0   41.8  30.109  0.00  0.00     0     0.00      0     0.0  0.00   0.0   0.101   0.000   67.5    47   46.6   65.8   8.80  .0750    0.000   213    5    100.0   10 
12/11/18  6:20a   50.8   50.8   50.5    79   44.5  15.0   SSW   2.50  27.0    SW   44.1   50.7   44.0   41.9  30.103  0.00  0.00     0     0.00      0     0.0  0.00   0.0   0.099   0.000   67.5    47   46.6   65.8   8.80  .0749    0.000   213    5    100.0   10 
12/11/18  6:30a   50.7   50.9   50.6    78   44.1  15.0   SSW   2.50  30.0   SSE   44.0   50.5   43.8   41.7  30.090  0.00  0.00     0     0.00      0     0.0  0.00   0.0   0.099   0.000   67.5    47   46.6   65.8   8.80  .0749    0.000   212    5    100.0   10 
12/11/18  6:40a   50.5   50.7   50.5    78   43.9  17.0     S   2.83  31.0     S   43.2   50.4   43.1   41.1  30.088  0.00  0.00     0     0.00      0     0.0  0.00   0.0   0.101   0.000   67.5    47   46.6   65.8   8.80  .0749    0.000   211    5    100.0   10 
12/11/18  6:50a   50.4   50.6   50.4    78   43.8  15.0   SSW   2.50  30.0   SSW   43.6   50.3   43.5   41.3  30.090  0.00  0.00     0     0.00      0     0.0  0.00   0.0   0.101   0.000   67.6    47   46.6   66.0   8.80  .0749    0.000   212    5    100.0   10 
12/11/18  7:00a   50.4   50.4   50.3    78   43.8  13.0   SSW   2.17  26.0   SSE   44.3   50.3   44.2   41.9  30.087  0.00  0.00     0     0.00      0     0.0  0.00   0.0   0.101   0.000   67.8    47   46.8   66.2   8.79  .0748    0.002   213    5    100.0   10 
12/11/18  7:10a   49.8   50.3   49.8    79   43.5  16.0   SSW   2.67  31.0   SSE   42.7   49.7   42.6   40.5  30.079  0.00  0.00     0     0.00      0     0.0  0.00   0.0   0.106   0.000   67.8    47   46.8   66.2   8.79  .0748    0.000   212    5    100.0   10 
12/11/18  7:20a   49.7   49.8   49.7    80   43.8  15.0   SSW   2.50  26.0     S   42.9   49.7   42.9   40.7  30.080  0.00  0.00     0     0.00      0     0.0  0.00   0.0   0.106   0.000   67.9    48   47.5   66.4   8.89  .0748    0.000   211    5    100.0   10 
12/11/18  7:30a   49.8   49.9   49.7    80   43.9  16.0   SSW   2.67  29.0   SSW   42.7   49.8   42.7   40.6  30.080  0.00  0.00     0     0.00      0     0.0  0.00   0.0   0.106   0.000   67.9    48   47.5   66.4   8.89  .0748    0.000   211    5    100.0   10 
12/11/18  7:40a   49.7   49.8   49.7    80   43.8  15.0     S   2.50  29.0   SSW   42.9   49.7   42.9   40.7  30.078  0.00  0.00     0     0.00      0     0.0  0.00   0.0   0.106   0.000   67.9    48   47.5   66.4   8.89  .0748    0.000   214    5    100.0   10 
12/11/18  7:50a   49.7   49.7   49.6    81   44.1  14.0   SSW   2.33  25.0     S   43.2   49.7   43.2   41.0  30.065  0.00  0.00     1     0.01      5     0.0  0.00   0.0   0.106   0.000   67.9    48   47.5   66.4   8.89  .0748    0.000   211    5    100.0   10 
12/11/18  8:00a   49.7   49.8   49.7    81   44.1  15.0     S   2.50  29.0   SSE   42.9   49.7   42.9   40.9  30.066  0.00  0.00     7     0.10     11     0.0  0.00   0.0   0.106   0.000   67.9    48   47.5   66.4   8.89  .0748    0.002   211    5    100.0   10 
12/11/18  8:10a   49.8   49.8   49.7    82   44.5  14.0   SSW   2.33  24.0    SW   43.3   49.8   43.3   41.3  30.067  0.00  0.00    12     0.17     12     0.0  0.00   0.0   0.106   0.000   67.9    48   47.5   66.4   8.89  .0748    0.000   213    5    100.0   10 
12/11/18  8:20a   50.0   50.0   49.8    82   44.7  13.0   SSW   2.17  24.0     S   43.9   50.0   43.9   41.8  30.072  0.00  0.00    11     0.16     12     0.0  0.00   0.0   0.104   0.000   67.9    48   47.5   66.4   8.89  .0748    0.000   213    5    100.0   10 
12/11/18  8:30a   49.8   50.0   49.8    83   44.8  15.0   SSW   2.50  30.0   SSE   43.0   49.9   43.1   41.2  30.068  0.00  0.00    14     0.20     16     0.0  0.00   0.0   0.106   0.000   67.9    48   47.5   66.4   8.89  .0748    0.000   211    5    100.0   10 
12/11/18  8:40a   50.1   50.1   49.8    83   45.1  14.0   SSW   2.33  25.0     S   43.6   50.1   43.6   41.8  30.070  0.00  0.00    19     0.27     26     0.0  0.00   0.0   0.103   0.000   67.9    48   47.5   66.4   8.89  .0748    0.000   212    5    100.0   10 
12/11/18  8:50a   50.2   50.3   50.1    82   44.9  15.0   SSW   2.50  26.0   WSW   43.4   50.2   43.4   41.8  30.054  0.00  0.00    31     0.44     33     0.0  0.00   0.0   0.103   0.000   67.9    48   47.5   66.4   8.89  .0747    0.000   211    5    100.0   10 
12/11/18  9:00a   50.4   50.4   50.2    82   45.1  17.0   SSW   2.83  34.0     S   43.0   50.4   43.0   42.7  30.053  0.00  0.00    36     0.52     39     0.0  0.00   0.0   0.101   0.000   67.8    48   47.4   66.3   8.89  .0747    0.002   213    5    100.0   10 
12/11/18  9:10a   50.5   50.5   50.4    82   45.2  17.0   SSW   2.83  31.0   SSW   43.2   50.5   43.2   43.2  30.051  0.00  0.00    44     0.63     51     0.0  0.00   0.0   0.101   0.000   67.8    48   47.4   66.3   8.89  .0747    0.000   213    5    100.0   10 
12/11/18  9:20a   50.6   50.6   50.4    82   45.3  18.0   SSW   3.00  34.0   SSW   43.0   50.6   43.0   43.1  30.054  0.00  0.00    49     0.70     51     0.0  0.00   0.0   0.100   0.000   67.8    48   47.4   66.3   8.89  .0747    0.000   212    5    100.0   10 
12/11/18  9:30a   50.8   50.8   50.6    82   45.5  22.0   SSW   3.67  35.0    SW   42.3   50.8   42.3   42.7  30.059  0.00  0.00    59     0.85     70     0.0  0.00   0.0   0.099   0.000   67.8    48   47.4   66.3   8.89  .0748    0.000   212    5    100.0   10 
12/11/18  9:40a   51.0   51.0   50.8    82   45.7  20.0   SSW   3.33  37.0   SSE   43.0   50.9   42.9   43.5  30.056  0.00  0.00    70     1.00     83     0.0  0.00   0.0   0.097   0.000   67.9    48   47.5   66.4   8.89  .0747    0.000   213    5    100.0   10 
12/11/18  9:50a   51.2   51.3   51.1    82   45.9  17.0   SSW   2.83  37.0     S   43.9   51.1   43.8   44.8  30.059  0.00  0.00    82     1.18     95     0.0  0.00   0.0   0.096   0.000   68.0    48   47.6   66.5   8.89  .0747    0.000   213    5    100.0   10 
12/11/18 10:00a   51.5   51.5   51.2    82   46.2  19.0   SSW   3.17  41.0   SSE   43.8   51.4   43.7   44.8  30.058  0.00  0.00    86     1.23    114     0.0  0.00   0.0   0.094   0.000   68.2    48   47.8   66.7   8.89  .0747    0.003   212    5    100.0   10 
12/11/18 10:10a   51.8   51.8   51.5    80   45.8  19.0   SSW   3.17  37.0   SSE   44.1   51.6   43.9   45.1  30.066  0.00  0.00    94     1.35    111     0.0  0.00   0.0   0.092   0.000   68.4    48   47.9   66.9   8.88  .0747    0.000   213    5    100.0   10 
12/11/18 10:20a   51.6   51.9   51.6    81   46.0  19.0   SSW   3.17  40.0   SSE   43.9   51.5   43.8   44.7  30.070  0.00  0.00    84     1.20    111     0.0  0.00   0.0   0.093   0.000   68.6    48   48.1   67.0   8.88  .0746    0.000   212    5    100.0   10 
12/11/18 10:30a   51.7   51.7   51.5    82   46.4  18.0   SSW   3.00  33.0   SSE   44.3   51.6   44.2   46.6  30.069  0.00  0.00   143     2.05    169     0.0  0.00   0.0   0.092   0.000   68.8    48   48.3   67.2   8.87  .0746    0.000   213    5    100.0   10 
12/11/18 10:40a   51.5   51.7   51.5    83   46.5  18.0   SSW   3.00  29.0     S   44.1   51.4   44.0   44.8  30.072  0.00  0.00    80     1.15    109     0.0  0.00   0.0   0.094   0.000   68.8    48   48.3   67.2   8.87  .0746    0.000   213    5    100.0   10 
12/11/18 10:50a   51.5   51.5   51.4    84   46.8  17.0   SSW   2.83  28.0   SSE   44.3   51.5   44.3   44.7  30.066  0.00  0.00    68     0.97     77     0.0  0.00   0.0   0.094   0.000   68.8    48   48.3   67.2   8.87  .0746    0.000   209    5    100.0   10 
12/11/18 11:00a   51.9   52.1   51.5    83   46.9  22.0   SSW   3.67  36.0     S   43.6   51.8   43.5   43.9  30.069  0.00  0.00    69     0.99     83     0.0  0.00   0.0   0.091   0.000   68.7    48   48.2   67.1   8.88  .0746    0.004   211    5    100.0   10 
12/11/18 11:10a   51.8   51.9   51.8    84   47.1  21.0   SSW   3.50  35.0     S   43.7   51.8   43.7   43.8  30.068  0.00  0.00    58     0.83     70     0.0  0.00   0.0   0.092   0.000   68.7    48   48.2   67.1   8.88  .0746    0.000   212    5    100.0   10 
12/11/18 11:20a   51.7   51.8   51.4    85   47.3  21.0   SSW   3.50  36.0   SSE   43.5   51.7   43.5   43.4  30.054  0.00  0.00    53     0.76     63     0.0  0.00   0.0   0.092   0.000   68.7    48   48.2   67.1   8.88  .0746    0.000   211    5    100.0   10 
12/11/18 11:30a   51.5   51.7   51.5    85   47.1  24.0   SSW   4.00  39.0     S   42.7   51.5   42.7   42.6  30.047  0.00  0.00    53     0.76     63     0.0  0.00   0.0   0.094   0.000   68.7    48   48.2   67.1   8.88  .0746    0.000   210    5    100.0   10 
12/11/18 11:40a   51.3   51.5   51.3    86   47.3  22.0   SSW   3.67  38.0   SSW   42.9   51.3   42.9   42.3  30.035  0.00  0.00    30     0.43     40     0.0  0.00   0.0   0.095   0.000   68.7    48   48.2   67.1   8.88  .0745    0.000   212    5    100.0   10 
12/11/18 11:50a   51.6   51.6   51.3    86   47.5  24.0   SSW   4.00  41.0   SSE   42.8   51.6   42.8   42.3  30.026  0.00  0.00    33     0.47     40     0.0  0.00   0.0   0.093   0.000   68.7    48   48.2   67.1   8.88  .0745    0.000   208    5    100.0   10 
12/11/18 12:00p   51.4   51.6   51.4    86   47.4  24.0   SSW   4.00  39.0     S   42.6   51.4   42.6   42.1  30.022  0.00  0.00    36     0.52     44     0.0  0.00   0.0   0.094   0.000   68.7    48   48.2   67.1   8.88  .0745    0.003   211    5    100.0   10 
12/11/18 12:10p   51.5   51.5   51.4    86   47.5  23.0   SSW   3.83  38.0     S   42.9   51.5   42.9   42.4  30.015  0.00  0.00    36     0.52     47     0.0  0.00   0.0   0.094   0.000   68.7    48   48.2   67.1   8.88  .0745    0.000   212    5    100.0   10 
12/11/18 12:20p   51.6   51.7   51.4    86   47.5  23.0   SSW   3.83  40.0   SSE   43.0   51.6   43.0   42.4  30.014  0.00  0.00    31     0.44     35     0.0  0.00   0.0   0.093   0.000   68.7    48   48.2   67.1   8.88  .0745    0.000   212    5    100.0   10 
12/11/18 12:30p   51.7   51.7   51.6    86   47.6  24.0   SSW   4.00  45.0   SSE   42.9   51.7   42.9   42.4  30.011  0.00  0.00    35     0.50     42     0.0  0.00   0.0   0.092   0.000   68.7    48   48.2   67.1   8.88  .0745    0.000   211    5    100.0   10 
12/11/18 12:40p   51.7   51.8   51.7    86   47.6  23.0   SSW   3.83  35.0     S   43.1   51.7   43.1   42.8  30.001  0.00  0.00    44     0.63     58     0.0  0.00   0.0   0.092   0.000   68.7    48   48.2   67.1   8.88  .0745    0.000   212    5    100.0   10 
12/11/18 12:50p   52.1   52.1   51.7    85   47.7  21.0   SSW   3.50  35.0     S   44.0   52.1   44.0   43.4  30.004  0.00  0.00    35     0.50     47     0.0  0.00   0.0   0.090   0.000   68.7    48   48.2   67.1   8.88  .0745    0.000   213    5    100.0   10 
12/11/18  1:00p   52.1   52.1   52.1    85   47.7  23.0   SSW   3.83  37.0     S   43.6   52.1   43.6   42.9  30.000  0.00  0.00    26     0.37     30     0.0  0.00   0.0   0.090   0.000   68.7    48   48.2   67.1   8.88  .0745    0.003   212    5    100.0   10 
12/11/18  1:10p   52.1   52.1   52.1    85   47.7  23.0   SSW   3.83  39.0   SSW   43.6   52.1   43.6   43.2  29.983  0.00  0.00    42     0.60     53     0.0  0.00   0.0   0.090   0.000   68.7    48   48.2   67.1   8.88  .0744    0.000   212    5    100.0   10 
12/11/18  1:20p   52.1   52.1   52.1    86   48.0  22.0   SSW   3.67  38.0   SSE   43.8   52.1   43.8   43.4  29.971  0.00  0.00    37     0.53     46     0.0  0.00   0.0   0.090   0.000   68.7    48   48.2   67.1   8.88  .0744    0.000   211    5    100.0   10 
12/11/18  1:30p   52.1   52.1   52.1    86   48.0  21.0   SSW   3.50  35.0   SSE   44.0   52.1   44.0   43.2  29.969  0.00  0.00    24     0.34     28     0.0  0.00   0.0   0.090   0.000   68.6    48   48.1   67.0   8.88  .0744    0.000   212    5    100.0   10 
12/11/18  1:40p   52.4   52.4   52.1    86   48.3  22.0   SSW   3.67  33.0    SW   44.1   52.4   44.1   43.4  29.974  0.00  0.00    28     0.40     30     0.0  0.00   0.0   0.087   0.000   68.6    48   48.1   67.0   8.88  .0744    0.000   213    5    100.0   10 
12/11/18  1:50p   52.2   52.5   52.2    87   48.4  22.0   SSW   3.67  34.0    SW   43.9   52.3   44.0   43.5  29.964  0.00  0.00    34     0.49     40     0.0  0.00   0.0   0.089   0.000   68.6    48   48.1   67.0   8.88  .0744    0.000   210    5    100.0   10 
12/11/18  2:00p   52.0   52.2   52.0    87   48.3  23.0   SSW   3.83  42.0   SSE   43.5   52.1   43.6   43.0  29.955  0.00  0.00    29     0.42     33     0.0  0.00   0.0   0.090   0.000   68.6    48   48.1   67.0   8.88  .0744    0.003   212    5    100.0   10 
12/11/18  2:10p   52.0   52.0   51.9    88   48.6  22.0   SSW   3.67  35.0     S   43.7   52.1   43.8   42.9  29.954  0.01  0.00    16     0.23     21     0.0  0.00   0.0   0.090   0.000   68.5    48   48.0   66.9   8.88  .0744    0.000   211    5    100.0   10 
12/11/18  2:20p   51.9   52.0   51.9    88   48.5  22.0   SSW   3.67  34.0   SSW   43.6   52.0   43.7   42.8  29.952  0.01  0.00    15     0.22     16     0.0  0.00   0.0   0.091   0.000   68.5    48   48.0   66.9   8.88  .0744    0.000   213    5    100.0   10 
12/11/18  2:30p   52.0   52.0   51.9    88   48.6  22.0   SSW   3.67  34.0     S   43.7   52.1   43.8   42.9  29.947  0.00  0.05    15     0.22     21     0.0  0.00   0.0   0.090   0.000   68.4    48   47.9   66.9   8.88  .0744    0.000   210    5    100.0   10 
12/11/18  2:40p   51.9   52.0   51.9    88   48.5  21.0   SSW   3.50  37.0   SSE   43.8   52.0   43.9   42.9  29.950  0.01  0.05    12     0.17     16     0.0  0.00   0.0   0.091   0.000   68.4    48   47.9   66.9   8.88  .0744    0.000   213    5    100.0   10 
12/11/18  2:50p   52.0   52.0   51.9    89   48.9  22.0   SSW   3.67  35.0   SSE   43.7   52.2   43.9   42.8  29.953  0.01  0.05     9     0.13     12     0.0  0.00   0.0   0.090   0.000   68.3    48   47.8   66.8   8.88  .0744    0.000   210    5    100.0   10 
12/11/18  3:00p   51.8   52.0   51.8    89   48.7  21.0   SSW   3.50  33.0   SSE   43.7   52.0   43.9   42.7  29.953  0.02  0.19     7     0.10      9     0.0  0.00   0.0   0.092   0.000   68.3    48   47.8   66.8   8.88  .0744    0.002   210    5    100.0   10 
12/11/18  3:10p   51.8   51.9   51.8    90   49.0  21.0   SSW   3.50  31.0   SSW   43.7   52.0   43.9   42.8  29.932  0.02  0.19    10     0.14     16     0.0  0.00   0.0   0.092   0.000   68.4    48   47.9   66.9   8.88  .0743    0.000   212    5    100.0   10 
12/11/18  3:20p   52.1   52.1   51.8    90   49.3  17.0     S   2.83  37.0   SSE   45.0   52.3   45.2   43.9  29.905  0.00  0.05     8     0.11     12     0.0  0.00   0.0   0.090   0.000   68.4    48   47.9   66.9   8.88  .0743    0.000   210    5    100.0   10 
12/11/18  3:30p   53.4   53.4   52.1    90   50.5  18.0     S   3.00  35.0   SSE   46.2   53.5   46.3   45.0  29.886  0.01  0.05     4     0.06      7     0.0  0.00   0.0   0.081   0.000   68.5    48   48.0   66.9   8.88  .0742    0.000   214    5    100.0   10 
12/11/18  3:40p   53.3   53.7   53.3    88   49.8  23.0   SSW   3.83  45.0     S   45.0   53.3   45.0   43.9  29.909  0.00  0.00     6     0.09      9     0.0  0.00   0.0   0.081   0.000   68.6    48   48.1   67.0   8.88  .0742    0.000   212    5    100.0   10 
12/11/18  3:50p   52.8   53.4   52.8    88   49.3  24.0     S   4.00  37.0     S   44.2   52.8   44.2   43.2  29.906  0.01  0.00     8     0.11      9     0.0  0.00   0.0   0.085   0.000   68.6    48   48.1   67.0   8.88  .0742    0.000   209    5    100.0   10 
12/11/18  4:00p   52.4   52.8   52.4    88   48.9  23.0   SSW   3.83  36.0     S   43.9   52.5   44.0   42.5  29.913  0.01  0.05     2     0.03      7     0.0  0.00   0.0   0.087   0.000   68.7    48   48.2   67.1   8.88  .0742    0.002   212    5    100.0   10 
12/11/18  4:10p   52.3   52.3   52.3    89   49.2  23.0   SSW   3.83  35.0     S   43.8   52.4   43.9   42.4  29.902  0.02  0.17     0     0.00      5     0.0  0.00   0.0   0.088   0.000   68.7    48   48.2   67.1   8.88  .0742    0.000   211    5    100.0   10 
12/11/18  4:20p   52.3   52.4   52.3    90   49.5  23.0   SSW   3.83  36.0   SSW   43.8   52.5   44.0   42.6  29.898  0.01  0.09     1     0.01      5     0.0  0.00   0.0   0.088   0.000   68.7    48   48.2   67.1   8.88  .0742    0.000   212    5    100.0   10 
12/11/18  4:30p   52.4   52.4   52.3    90   49.6  24.0   SSW   4.00  33.0   SSE   43.7   52.6   43.9   42.4  29.902  0.03  0.15     0     0.00      0     0.0  0.00   0.0   0.087   0.000   68.7    48   48.2   67.1   8.88  .0742    0.000   213    5    100.0   10 
12/11/18  4:40p   52.4   52.4   52.3    90   49.6  26.0   SSW   4.33  36.0   SSE   43.4   52.6   43.6   42.2  29.919  0.02  0.24     0     0.00      0     0.0  0.00   0.0   0.087   0.000   68.7    48   48.2   67.1   8.88  .0743    0.000   211    5    100.0   10 
12/11/18  4:50p   53.0   53.0   52.4    90   50.1  29.0   SSW   4.83  49.0     S   43.6   53.1   43.7   42.4  29.939  0.02  0.18     0     0.00      0     0.0  0.00   0.0   0.083   0.000   68.7    48   48.2   67.1   8.88  .0743    0.000   212    5    100.0   10 
12/11/18  5:00p   53.4   53.4   53.0    90   50.5  19.0   SSW   3.17  32.0   SSE   45.9   53.5   46.0   44.4  29.934  0.00  0.04     0     0.00      0     0.0  0.00   0.0   0.081   0.000   68.7    48   48.2   67.1   8.88  .0743    0.002   213    5    100.0   10 
12/11/18  5:10p   53.2   53.5   53.1    89   50.0  20.0   SSW   3.33  28.0    SW   45.4   53.3   45.5   43.9  29.927  0.01  0.04     0     0.00      0     0.0  0.00   0.0   0.082   0.000   68.6    48   48.1   67.0   8.88  .0743    0.000   212    5    100.0   10 
12/11/18  5:20p   53.1   53.2   53.1    89   49.9  18.0   SSW   3.00  29.0   SSE   45.8   53.2   45.9   44.2  29.919  0.00  0.00     0     0.00      0     0.0  0.00   0.0   0.083   0.000   68.6    48   48.1   67.0   8.88  .0743    0.000   211    5    100.0   10 
12/11/18  5:30p   53.1   53.2   53.1    89   49.9  19.0   SSW   3.17  30.0     S   45.6   53.2   45.7   44.0  29.931  0.02  0.09     0     0.00      0     0.0  0.00   0.0   0.083   0.000   68.6    48   48.1   67.0   8.88  .0743    0.000   210    5    100.0   10 
12/11/18  5:40p   52.2   53.2   52.1    88   48.8  19.0   WSW   3.17  29.0     W   44.5   52.3   44.6   42.9  29.953  0.07  2.38     0     0.00      0     0.0  0.00   0.0   0.089   0.000   68.5    48   48.0   66.9   8.88  .0744    0.000   211    5    100.0   10 
12/11/18  5:50p   51.7   52.1   51.7    89   48.6  17.0    SW   2.83  22.0    SW   44.5   51.9   44.7   42.9  29.957  0.01  0.14     0     0.00      0     0.0  0.00   0.0   0.092   0.000   68.5    48   48.0   66.9   8.88  .0744    0.000   212    5    100.0   10 
12/11/18  6:00p   52.0   52.0   51.7    89   48.9  12.0   WSW   2.00  18.0   WSW   46.6   52.2   46.8   44.7  29.955  0.00  0.00     0     0.00      0     0.0  0.00   0.0   0.090   0.000   68.5    48   48.0   66.9   8.88  .0744    0.001   212    5    100.0   10 
12/11/18  6:10p   52.1   52.2   52.0    89   49.0  13.0   WSW   2.17  22.0     W   46.3   52.3   46.5   44.5  29.953  0.00  0.00     0     0.00      0     0.0  0.00   0.0   0.090   0.000   68.5    48   48.0   66.9   8.88  .0744    0.000   210    5    100.0   10 
12/11/18  6:20p   50.5   52.1   50.4    87   46.8  10.0   NNW   1.67  17.0   NNW   45.9   50.6   46.0   43.7  29.972  0.00  0.00     0     0.00      0     0.0  0.00   0.0   0.101   0.000   68.4    48   47.9   66.9   8.88  .0744    0.000   212    5    100.0   10 
12/11/18  6:30p   50.7   50.7   50.5    87   47.0   7.0    NW   1.17  16.0    NW   48.0   50.8   48.1   45.5  29.978  0.00  0.00     0     0.00      0     0.0  0.00   0.0   0.099   0.000   68.4    48   47.9   66.9   8.88  .0745    0.000   213    5    100.0   10 
12/11/18  6:40p   50.8   50.8   50.6    86   46.8   6.0    NW   1.00  12.0    NW   48.7   50.9   48.8   46.2  29.987  0.00  0.00     0     0.00      0     0.0  0.00   0.0   0.099   0.000   68.4    48   47.9   66.9   8.88  .0745    0.000   211    5    100.0   10 
12/11/18  6:50p   51.0   51.0   50.8    86   47.0   5.0    NW   0.83   9.0     N   49.4   51.0   49.4   46.8  29.992  0.00  0.00     0     0.00      0     0.0  0.00   0.0   0.097   0.000   68.4    48   47.9   66.9   8.88  .0745    0.000   211    5    100.0   10 
12/11/18  7:00p   51.3   51.3   50.9    84   46.6   6.0   WNW   1.00  11.0    NW   49.2   51.3   49.2   46.6  29.998  0.00  0.00     0     0.00      0     0.0  0.00   0.0   0.095   0.000   68.5    48   48.0   66.9   8.88  .0745    0.001   212    5    100.0   10 
12/11/18  7:10p   51.7   51.7   51.3    84   47.0   7.0     W   1.17  13.0   WSW   49.2   51.7   49.2   46.7  29.998  0.00  0.00     0     0.00      0     0.0  0.00   0.0   0.092   0.000   68.5    48   48.0   66.9   8.88  .0745    0.000   212    5    100.0   10 
12/11/18  7:20p   51.9   51.9   51.7    83   46.9   8.0     W   1.33  12.0     W   48.8   51.8   48.7   46.2  30.003  0.00  0.00     0     0.00      0     0.0  0.00   0.0   0.091   0.000   68.6    48   48.1   67.0   8.88  .0745    0.000   210    5    100.0   10 
12/11/18  7:30p   52.2   52.2   51.9    83   47.2  10.0     W   1.67  15.0     W   47.8   52.1   47.7   45.5  30.006  0.00  0.00     0     0.00      0     0.0  0.00   0.0   0.089   0.000   68.6    48   48.1   67.0   8.88  .0745    0.000   214    5    100.0   10 
12/11/18  7:40p   52.3   52.3   52.2    81   46.6  11.0     W   1.83  16.0   WSW   47.4   52.1   47.2   45.0  30.007  0.00  0.00     0     0.00      0     0.0  0.00   0.0   0.088   0.000   68.6    48   48.1   67.0   8.88  .0745    0.000   212    5    100.0   10 
12/11/18  7:50p   52.3   52.4   52.3    82   47.0  10.0   WSW   1.67  16.0    SW   48.0   52.2   47.9   45.6  30.012  0.00  0.00     0     0.00      0     0.0  0.00   0.0   0.088   0.000   68.6    48   48.1   67.0   8.88  .0745    0.000   213    5    100.0   10 
12/11/18  8:00p   52.4   52.4   52.3    82   47.1   9.0   WSW   1.50  13.0   WSW   48.7   52.2   48.5   46.2  30.016  0.00  0.00     0     0.00      0     0.0  0.00   0.0   0.087   0.000   68.6    48   48.1   67.0   8.88  .0745    0.001   212    5    100.0   10 
12/11/18  8:10p   52.4   52.4   52.3    82   47.1  10.0   WSW   1.67  13.0   WSW   48.1   52.2   47.9   45.7  30.021  0.00  0.00     0     0.00      0     0.0  0.00   0.0   0.087   0.000   68.6    48   48.1   67.0   8.88  .0745    0.000   210    5    100.0   10 
12/11/18  8:20p   52.6   52.6   52.4    80   46.6  12.0   WSW   2.00  18.0   WSW   47.3   52.3   47.0   44.9  30.034  0.00  0.00     0     0.00      0     0.0  0.00   0.0   0.086   0.000   68.6    48   48.1   67.0   8.88  .0746    0.000   213    5    100.0   10 
12/11/18  8:30p   52.6   52.7   52.6    80   46.6  12.0   WSW   2.00  19.0     W   47.3   52.3   47.0   44.9  30.040  0.00  0.00     0     0.00      0     0.0  0.00   0.0   0.086   0.000   68.6    48   48.1   67.0   8.88  .0746    0.000   214    5    100.0   10 
12/11/18  8:40p   52.7   52.7   52.6    80   46.7  12.0   WSW   2.00  16.0   WSW   47.4   52.4   47.1   45.0  30.045  0.00  0.00     0     0.00      0     0.0  0.00   0.0   0.085   0.000   68.6    48   48.1   67.0   8.88  .0746    0.000   213    5    100.0   10 
12/11/18  8:50p   52.9   52.9   52.7    78   46.2  15.0   WSW   2.50  21.0   WSW   46.5   52.5   46.1   44.2  30.047  0.00  0.00     0     0.00      0     0.0  0.00   0.0   0.084   0.000   68.5    48   48.0   66.9   8.88  .0746    0.000   212    5    100.0   10 
12/11/18  9:00p   48.6   53.0   48.6    79   42.4  15.0   WNW   2.50  29.0   WNW   41.6   48.5   41.5   39.5  30.073  0.00  0.00     0     0.00      0     0.0  0.00   0.0   0.114   0.000   68.5    48   48.0   66.9   8.88  .0747    0.002   212    5    100.0   10 
12/11/18  9:10p   51.0   51.0   48.6    79   44.7  17.0     W   2.83  25.0   WNW   43.7   50.9   43.6   41.7  30.081  0.00  0.00     0     0.00      0     0.0  0.00   0.0   0.097   0.000   68.4    48   47.9   66.9   8.88  .0747    0.000   212    5    100.0   10 
12/11/18  9:20p   51.8   51.8   51.0    71   42.7  17.0     W   2.83  22.0     W   44.7   51.3   44.2   42.3  30.087  0.01  0.00     0     0.00      0     0.0  0.00   0.0   0.092   0.000   68.4    48   47.9   66.9   8.88  .0747    0.000   212    5    100.0   10 
12/11/18  9:30p   51.6   51.9   51.6    75   43.9  15.0     W   2.50  22.0     W   45.0   51.2   44.6   42.6  30.087  0.00  0.00     0     0.00      0     0.0  0.00   0.0   0.093   0.000   68.3    48   47.8   66.8   8.88  .0747    0.000   213    5    100.0   10 
12/11/18  9:40p   50.0   51.7   50.0    78   43.4  16.0     W   2.67  27.0   WNW   42.9   49.9   42.8   40.8  30.102  0.00  0.00     0     0.00      0     0.0  0.00   0.0   0.104   0.000   68.3    48   47.8   66.8   8.88  .0748    0.000   212    5    100.0   10 
12/11/18  9:50p   49.5   50.0   49.4    81   43.9  12.0   WNW   2.00  19.0    NW   43.8   49.5   43.8   41.6  30.109  0.00  0.00     0     0.00      0     0.0  0.00   0.0   0.108   0.000   68.2    48   47.8   66.7   8.89  .0748    0.000   213    5    100.0   10 
12/11/18 10:00p   50.0   50.0   49.5    81   44.4  11.0   WNW   1.83  15.0   WNW   44.8   50.0   44.8   42.5  30.113  0.00  0.00     0     0.00      0     0.0  0.00   0.0   0.104   0.000   68.2    48   47.8   66.7   8.89  .0748    0.002   213    5    100.0   10 
12/11/18 10:10p   50.3   50.3   50.0    81   44.7  10.0    NW   1.67  14.0    NW   45.7   50.3   45.7   43.3  30.117  0.00  0.00     0     0.00      0     0.0  0.00   0.0   0.102   0.000   68.1    48   47.7   66.6   8.89  .0749    0.000   210    5    100.0   10 
12/11/18 10:20p   50.4   50.4   50.2    79   44.1   9.0    NW   1.50  14.0    NW   46.4   50.3   46.3   43.8  30.123  0.00  0.00     0     0.00      0     0.0  0.00   0.0   0.101   0.000   68.1    48   47.7   66.6   8.89  .0749    0.000   211    5    100.0   10 
12/11/18 10:30p   50.7   50.7   50.4    79   44.4  10.0   WNW   1.67  14.0    NW   46.1   50.6   46.0   43.6  30.132  0.00  0.00     0     0.00      0     0.0  0.00   0.0   0.099   0.000   68.0    48   47.6   66.5   8.89  .0749    0.000   210    5    100.0   10 
12/11/18 10:40p   50.9   50.9   50.7    78   44.3  12.0   WNW   2.00  17.0   WNW   45.3   50.7   45.1   42.9  30.144  0.00  0.00     0     0.00      0     0.0  0.00   0.0   0.098   0.000   68.0    48   47.6   66.5   8.89  .0749    0.000   211    5    100.0   10 
12/11/18 10:50p   50.9   50.9   50.7    78   44.3  13.0   WNW   2.17  17.0     W   44.9   50.7   44.7   42.6  30.155  0.00  0.00     0     0.00      0     0.0  0.00   0.0   0.098   0.000   68.0    48   47.6   66.5   8.89  .0750    0.000   210    5    100.0   10 
12/11/18 11:00p   50.8   50.9   50.7    78   44.2  11.0   WNW   1.83  15.0   WNW   45.7   50.6   45.5   43.2  30.158  0.00  0.00     0     0.00      0     0.0  0.00   0.0   0.099   0.000   67.9    48   47.5   66.4   8.89  .0750    0.002   213    5    100.0   10 
12/11/18 11:10p   51.0   51.0   50.8    78   44.4  11.0     W   1.83  15.0     W   45.9   50.8   45.7   43.4  30.166  0.00  0.00     0     0.00      0     0.0  0.00   0.0   0.097   0.000   67.9    48   47.5   66.4   8.89  .0750    0.000   212    5    100.0   10 
12/11/18 11:20p   50.0   51.1   50.0    76   42.7  14.0     W   2.33  20.0     W   43.5   49.8   43.3   41.2  30.170  0.00  0.00     0     0.00      0     0.0  0.00   0.0   0.104   0.000   67.8    48   47.4   66.3   8.89  .0750    0.000   212    5    100.0   10 
12/11/18 11:30p   50.3   50.3   50.0    77   43.4  12.0     W   2.00  15.0     W   44.6   50.2   44.5   42.3  30.175  0.00  0.00     0     0.00      0     0.0  0.00   0.0   0.102   0.000   67.8    48   47.4   66.3   8.89  .0750    0.000   212    5    100.0   10 
12/11/18 11:40p   51.2   51.2   50.3    77   44.2  11.0   WNW   1.83  16.0   WNW   46.1   51.0   45.9   43.6  30.181  0.00  0.00     0     0.00      0     0.0  0.00   0.0   0.096   0.000   67.8    48   47.4   66.3   8.89  .0751    0.000   213    5    100.0   10 
12/11/18 11:50p   51.0   51.3   51.0    78   44.4   9.0   WNW   1.50  15.0   WNW   47.1   50.8   46.9   44.4  30.195  0.00  0.00     0     0.00      0     0.0  0.00   0.0   0.097   0.000   67.7    48   47.3   66.2   8.90  .0751    0.000   212    5    100.0   10 
12/12/18 12:00a   51.2   51.3   51.0    78   44.6  11.0     W   1.83  15.0   WNW   46.1   51.0   45.9   43.6  30.200  0.00  0.00     0     0.00      0     0.0  0.00   0.0   0.096   0.000   67.7    48   47.3   66.2   8.90  .0751    0.002   212    5    100.0   10 
12/12/18 12:10a   51.2   51.4   51.2    78   44.6  11.0   WNW   1.83  15.0   WNW   46.1   51.0   45.9   43.6  30.201  0.00  0.00     0     0.00      0     0.0  0.00   0.0   0.096   0.000   67.6    48   47.2   66.1   8.90  .0751    0.000   209    5    100.0   10 
12/12/18 12:20a   51.5   51.6   51.2    78   44.9  11.0   WNW   1.83  22.0    NW   46.5   51.3   46.3   44.0  30.210  0.00  0.00     0     0.00      0     0.0  0.00   0.0   0.094   0.000   67.6    48   47.2   66.1   8.90  .0752    0.000   214    5    100.0   10 
12/12/18 12:30a   50.3   51.4   50.1    77   43.4  13.0   WNW   2.17  22.0    NW   44.2   50.2   44.1   42.0  30.219  0.00  0.00     0     0.00      0     0.0  0.00   0.0   0.102   0.000   67.5    48   47.1   65.9   8.90  .0752    0.000   213    5    100.0   10 
12/12/18 12:40a   50.5   50.5   50.3    79   44.2   7.0   WNW   1.17  12.0    NW   47.8   50.4   47.7   45.0  30.221  0.00  0.00     0     0.00      0     0.0  0.00   0.0   0.101   0.000   67.5    48   47.1   65.9   8.90  .0752    0.000   211    5    100.0   10 
12/12/18 12:50a   50.7   50.7   50.4    80   44.8   4.0    NW   0.67   9.0   WNW   49.7   50.6   49.6   46.9  30.226  0.00  0.00     0     0.00      0     0.0  0.00   0.0   0.099   0.000   67.4    48   47.0   65.8   8.90  .0752    0.000   214    5    100.0   10 
12/12/18  1:00a   51.0   51.0   50.7    80   45.0   5.0    NW   0.83  11.0    NW   49.4   50.9   49.3   46.7  30.230  0.00  0.00     0     0.00      0     0.0  0.00   0.0   0.097   0.000   67.4    48   47.0   65.8   8.90  .0753    0.001   212    5    100.0   10 
12/12/18  1:10a   51.3   51.4   51.0    78   44.7   6.0    NW   1.00  13.0    NW   49.2   51.1   49.0   46.3  30.233  0.00  0.00     0     0.00      0     0.0  0.00   0.0   0.095   0.000   67.3    48   46.9   65.7   8.90  .0753    0.000   211    5    100.0   10 
12/12/18  1:20a   51.3   51.3   51.2    77   44.3   5.0    NW   0.83  11.0   NNW   49.8   51.1   49.6   46.9  30.241  0.00  0.00     0     0.00      0     0.0  0.00   0.0   0.095   0.000   67.3    48   46.9   65.7   8.90  .0753    0.000   214    5    100.0   10 
12/12/18  1:30a   51.6   51.8   51.4    77   44.6   8.0   WNW   1.33  13.0   WNW   48.4   51.3   48.1   45.5  30.239  0.00  0.00     0     0.00      0     0.0  0.00   0.0   0.093   0.000   67.2    48   46.8   65.6   8.91  .0753    0.000   213    5    100.0   10 
12/12/18  1:40a   51.5   51.6   51.5    78   44.9   9.0   WNW   1.50  13.0   WNW   47.7   51.3   47.5   45.0  30.247  0.00  0.00     0     0.00      0     0.0  0.00   0.0   0.094   0.000   67.2    48   46.8   65.6   8.91  .0753    0.000   212    5    100.0   10 
12/12/18  1:50a   51.4   51.5   51.4    78   44.8   8.0   WNW   1.33  12.0   WNW   48.2   51.2   48.0   45.4  30.254  0.00  0.00     0     0.00      0     0.0  0.00   0.0   0.094   0.000   67.1    48   46.7   65.5   8.91  .0754    0.000   210    5    100.0   10 
12/12/18  2:00a   51.5   51.5   51.4    78   44.9   7.0   WNW   1.17  11.0    NW   49.0   51.3   48.8   46.1  30.258  0.00  0.00     0     0.00      0     0.0  0.00   0.0   0.094   0.000   67.1    48   46.7   65.5   8.91  .0754    0.001   210    5    100.0   10 
Email: AdamSPAM@StormwatchersRetreat.com (To send me email remove the word 'SPAM' from my email address.)